sensor_id;sensor_type;location;lat;lon;timestamp;temperature;humidity
61916;DHT22;47868;51.326;6.550;2022-12-07T04:56:33;5.10;99.90
61916;DHT22;47868;51.326;6.550;2022-12-07T05:01:26;5.20;99.90
61916;DHT22;47868;51.326;6.550;2022-12-07T05:03:52;5.20;99.90
61916;DHT22;47868;51.326;6.550;2022-12-07T05:06:18;5.10;99.90
61916;DHT22;47868;51.326;6.550;2022-12-07T05:08:44;5.20;99.90
61916;DHT22;47868;51.326;6.550;2022-12-07T05:11:11;5.20;99.90
61916;DHT22;47868;51.326;6.550;2022-12-07T05:13:57;5.20;99.90
61916;DHT22;47868;51.326;6.550;2022-12-07T05:16:23;5.20;99.90
61916;DHT22;47868;51.326;6.550;2022-12-07T05:18:48;5.20;99.90
61916;DHT22;47868;51.326;6.550;2022-12-07T05:21:14;5.20;99.90
61916;DHT22;47868;51.326;6.550;2022-12-07T05:23:40;5.20;99.90
61916;DHT22;47868;51.326;6.550;2022-12-07T05:26:05;5.30;99.90
61916;DHT22;47868;51.326;6.550;2022-12-07T05:28:31;5.30;99.90
61916;DHT22;47868;51.326;6.550;2022-12-07T05:30:56;5.30;99.90
61916;DHT22;47868;51.326;6.550;2022-12-07T05:33:22;5.30;99.90
61916;DHT22;47868;51.326;6.550;2022-12-07T05:35:48;5.30;99.90
61916;DHT22;47868;51.326;6.550;2022-12-07T05:38:13;5.30;99.90
61916;DHT22;47868;51.326;6.550;2022-12-07T05:40:39;5.30;99.90
61916;DHT22;47868;51.326;6.550;2022-12-07T05:43:04;5.40;99.90
61916;DHT22;47868;51.326;6.550;2022-12-07T05:45:30;5.40;99.90
61916;DHT22;47868;51.326;6.550;2022-12-07T05:47:55;5.50;99.90
61916;DHT22;47868;51.326;6.550;2022-12-07T05:50:21;5.40;99.90
61916;DHT22;47868;51.326;6.550;2022-12-07T05:52:47;5.50;99.90
61916;DHT22;47868;51.326;6.550;2022-12-07T05:55:12;5.50;99.90
61916;DHT22;47868;51.326;6.550;2022-12-07T05:57:38;5.40;99.90
61916;DHT22;47868;51.326;6.550;2022-12-07T06:00:04;5.40;99.90
61916;DHT22;47868;51.326;6.550;2022-12-07T06:02:30;5.40;99.90
61916;DHT22;47868;51.326;6.550;2022-12-07T06:04:56;5.50;99.90
61916;DHT22;47868;51.326;6.550;2022-12-07T06:07:21;5.50;99.90
61916;DHT22;47868;51.326;6.550;2022-12-07T06:09:47;5.50;99.90
61916;DHT22;47868;51.326;6.550;2022-12-07T06:12:13;5.40;99.90
61916;DHT22;47868;51.326;6.550;2022-12-07T06:14:58;5.40;99.90
61916;DHT22;47868;51.326;6.550;2022-12-07T06:17:23;5.40;99.90
61916;DHT22;47868;51.326;6.550;2022-12-07T06:19:49;5.40;99.90
61916;DHT22;47868;51.326;6.550;2022-12-07T06:22:15;5.40;99.90
61916;DHT22;47868;51.326;6.550;2022-12-07T06:24:41;5.40;99.90
61916;DHT22;47868;51.326;6.550;2022-12-07T06:27:07;5.40;99.90
61916;DHT22;47868;51.326;6.550;2022-12-07T06:29:33;5.40;99.90
61916;DHT22;47868;51.326;6.550;2022-12-07T06:31:59;5.40;99.90
61916;DHT22;47868;51.326;6.550;2022-12-07T06:34:25;5.40;99.90
61916;DHT22;47868;51.326;6.550;2022-12-07T06:36:51;5.40;99.90
61916;DHT22;47868;51.326;6.550;2022-12-07T06:39:26;5.40;99.90
61916;DHT22;47868;51.326;6.550;2022-12-07T06:41:53;5.40;99.90
61916;DHT22;47868;51.326;6.550;2022-12-07T06:44:20;5.30;99.90
61916;DHT22;47868;51.326;6.550;2022-12-07T06:46:46;5.40;99.90
61916;DHT22;47868;51.326;6.550;2022-12-07T06:49:12;5.40;99.90
61916;DHT22;47868;51.326;6.550;2022-12-07T06:51:37;5.30;99.90
61916;DHT22;47868;51.326;6.550;2022-12-07T06:54:07;5.30;99.90
61916;DHT22;47868;51.326;6.550;2022-12-07T06:56:33;5.30;99.90
61916;DHT22;47868;51.326;6.550;2022-12-07T06:58:58;5.20;99.90
61916;DHT22;47868;51.326;6.550;2022-12-07T07:01:24;5.30;99.90
61916;DHT22;47868;51.326;6.550;2022-12-07T07:03:50;5.20;99.90
61916;DHT22;47868;51.326;6.550;2022-12-07T07:06:15;5.30;99.90
61916;DHT22;47868;51.326;6.550;2022-12-07T07:08:41;5.30;99.90
61916;DHT22;47868;51.326;6.550;2022-12-07T07:11:08;5.30;99.90
61916;DHT22;47868;51.326;6.550;2022-12-07T07:13:34;5.30;99.90
61916;DHT22;47868;51.326;6.550;2022-12-07T07:16:00;5.30;99.90
61916;DHT22;47868;51.326;6.550;2022-12-07T07:18:26;5.20;99.90
61916;DHT22;47868;51.326;6.550;2022-12-07T07:20:52;5.20;99.90
61916;DHT22;47868;51.326;6.550;2022-12-07T07:23:18;5.10;99.90
61916;DHT22;47868;51.326;6.550;2022-12-07T07:25:44;5.10;99.90
61916;DHT22;47868;51.326;6.550;2022-12-07T07:28:10;5.00;99.90
61916;DHT22;47868;51.326;6.550;2022-12-07T07:30:36;5.00;99.90
61916;DHT22;47868;51.326;6.550;2022-12-07T07:33:03;5.00;99.90
61916;DHT22;47868;51.326;6.550;2022-12-07T07:35:30;5.00;99.90
61916;DHT22;47868;51.326;6.550;2022-12-07T07:37:56;5.00;99.90
61916;DHT22;47868;51.326;6.550;2022-12-07T07:40:21;4.90;99.90
61916;DHT22;47868;51.326;6.550;2022-12-07T07:42:52;4.90;99.90
61916;DHT22;47868;51.326;6.550;2022-12-07T07:45:19;4.90;99.90
61916;DHT22;47868;51.326;6.550;2022-12-07T07:47:45;4.90;99.90
61916;DHT22;47868;51.326;6.550;2022-12-07T07:50:10;4.80;99.90
61916;DHT22;47868;51.326;6.550;2022-12-07T07:52:36;4.80;99.90
61916;DHT22;47868;51.326;6.550;2022-12-07T07:55:02;4.90;99.90
61916;DHT22;47868;51.326;6.550;2022-12-07T07:57:28;4.80;99.90
61916;DHT22;47868;51.326;6.550;2022-12-07T07:59:53;4.80;99.90
61916;DHT22;47868;51.326;6.550;2022-12-07T08:02:20;4.70;99.90
61916;DHT22;47868;51.326;6.550;2022-12-07T08:04:46;4.70;99.90
61916;DHT22;47868;51.326;6.550;2022-12-07T08:07:13;4.70;99.90
61916;DHT22;47868;51.326;6.550;2022-12-07T08:09:39;4.80;99.90
61916;DHT22;47868;51.326;6.550;2022-12-07T08:12:04;4.80;99.90
61916;DHT22;47868;51.326;6.550;2022-12-07T08:14:30;4.80;99.90
61916;DHT22;47868;51.326;6.550;2022-12-07T08:16:57;5.00;99.90
61916;DHT22;47868;51.326;6.550;2022-12-07T08:19:22;5.00;99.90
61916;DHT22;47868;51.326;6.550;2022-12-07T08:21:48;5.10;99.90
61916;DHT22;47868;51.326;6.550;2022-12-07T08:24:14;5.00;99.90
61916;DHT22;47868;51.326;6.550;2022-12-07T08:26:40;5.00;99.90
61916;DHT22;47868;51.326;6.550;2022-12-07T08:29:06;5.30;99.90
61916;DHT22;47868;51.326;6.550;2022-12-07T08:31:32;5.20;99.90
61916;DHT22;47868;51.326;6.550;2022-12-07T08:51:13;5.20;99.90
61916;DHT22;47868;51.326;6.550;2022-12-07T08:56:08;5.10;99.90
61916;DHT22;47868;51.326;6.550;2022-12-07T09:01:05;5.40;99.90
61916;DHT22;47868;51.326;6.550;2022-12-07T09:03:33;5.50;99.90
61916;DHT22;47868;51.326;6.550;2022-12-07T09:06:01;5.50;99.90
61916;DHT22;47868;51.326;6.550;2022-12-07T09:08:34;5.40;99.90
61916;DHT22;47868;51.326;6.550;2022-12-07T09:11:04;5.30;99.90
61916;DHT22;47868;51.326;6.550;2022-12-07T09:13:32;5.40;99.90
61916;DHT22;47868;51.326;6.550;2022-12-07T09:15:57;5.40;99.90
61916;DHT22;47868;51.326;6.550;2022-12-07T09:20:52;5.20;99.90
61916;DHT22;47868;51.326;6.550;2022-12-07T09:25:46;5.50;99.90
61916;DHT22;47868;51.326;6.550;2022-12-07T09:30:44;5.70;99.90
61916;DHT22;47868;51.326;6.550;2022-12-07T09:33:10;5.70;99.90
61916;DHT22;47868;51.326;6.550;2022-12-07T09:35:36;5.70;99.90
61916;DHT22;47868;51.326;6.550;2022-12-07T09:38:01;5.90;99.90
61916;DHT22;47868;51.326;6.550;2022-12-07T09:40:29;5.90;99.90
61916;DHT22;47868;51.326;6.550;2022-12-07T09:42:57;5.80;99.90
61916;DHT22;47868;51.326;6.550;2022-12-07T09:47:53;6.00;99.90
61916;DHT22;47868;51.326;6.550;2022-12-07T09:50:27;5.90;99.90
61916;DHT22;47868;51.326;6.550;2022-12-07T09:53:08;6.00;99.90
61916;DHT22;47868;51.326;6.550;2022-12-07T09:55:38;6.00;99.90
61916;DHT22;47868;51.326;6.550;2022-12-07T09:58:29;6.10;99.90
61916;DHT22;47868;51.326;6.550;2022-12-07T10:03:38;6.10;99.90
61916;DHT22;47868;51.326;6.550;2022-12-07T10:06:07;6.10;99.90
61916;DHT22;47868;51.326;6.550;2022-12-07T10:11:04;6.20;99.90
61916;DHT22;47868;51.326;6.550;2022-12-07T10:18:52;6.00;99.90
61916;DHT22;47868;51.326;6.550;2022-12-07T10:21:25;5.90;99.90
61916;DHT22;47868;51.326;6.550;2022-12-07T10:24:03;6.00;99.90
61916;DHT22;47868;51.326;6.550;2022-12-07T10:26:34;6.40;99.90
61916;DHT22;47868;51.326;6.550;2022-12-07T10:36:52;5.90;99.90
61916;DHT22;47868;51.326;6.550;2022-12-07T10:44:33;5.90;99.90
61916;DHT22;47868;51.326;6.550;2022-12-07T11:13:24;6.40;99.90
61916;DHT22;47868;51.326;6.550;2022-12-07T11:36:43;7.60;99.90
61916;DHT22;47868;51.326;6.550;2022-12-07T11:39:33;7.80;99.90
61916;DHT22;47868;51.326;6.550;2022-12-07T11:42:27;7.70;99.90
61916;DHT22;47868;51.326;6.550;2022-12-07T12:00:51;8.70;99.90
61916;DHT22;47868;51.326;6.550;2022-12-07T12:03:36;7.50;99.90
61916;DHT22;47868;51.326;6.550;2022-12-07T12:20:05;7.90;99.90
61916;DHT22;47868;51.326;6.550;2022-12-07T12:22:46;7.90;99.90
61916;DHT22;47868;51.326;6.550;2022-12-07T12:25:26;7.70;99.90
61916;DHT22;47868;51.326;6.550;2022-12-07T12:27:58;7.80;99.90
61916;DHT22;47868;51.326;6.550;2022-12-07T12:30:40;7.70;99.90
61916;DHT22;47868;51.326;6.550;2022-12-07T12:36:20;7.70;99.90
61916;DHT22;47868;51.326;6.550;2022-12-07T12:47:04;7.90;99.90
61916;DHT22;47868;51.326;6.550;2022-12-07T12:49:43;7.80;99.90
61916;DHT22;47868;51.326;6.550;2022-12-07T12:55:12;7.50;99.90
61916;DHT22;47868;51.326;6.550;2022-12-07T12:57:38;7.70;99.90
61916;DHT22;47868;51.326;6.550;2022-12-07T13:00:22;7.50;99.90
61916;DHT22;47868;51.326;6.550;2022-12-07T13:05:23;7.70;99.90
61916;DHT22;47868;51.326;6.550;2022-12-07T13:23:21;7.50;99.90
61916;DHT22;47868;51.326;6.550;2022-12-07T13:28:44;8.00;99.90
61916;DHT22;47868;51.326;6.550;2022-12-07T13:34:01;8.10;99.90
61916;DHT22;47868;51.326;6.550;2022-12-07T13:39:15;8.30;99.90
61916;DHT22;47868;51.326;6.550;2022-12-07T13:41:42;8.50;99.90
61916;DHT22;47868;51.326;6.550;2022-12-07T13:44:14;8.30;99.90
61916;DHT22;47868;51.326;6.550;2022-12-07T13:49:23;8.20;99.90
61916;DHT22;47868;51.326;6.550;2022-12-07T13:51:50;7.80;99.90
61916;DHT22;47868;51.326;6.550;2022-12-07T13:54:16;8.30;99.90
61916;DHT22;47868;51.326;6.550;2022-12-07T13:56:42;8.10;99.90
61916;DHT22;47868;51.326;6.550;2022-12-07T13:59:21;8.00;99.90
61916;DHT22;47868;51.326;6.550;2022-12-07T14:01:48;8.00;99.90
61916;DHT22;47868;51.326;6.550;2022-12-07T14:04:19;8.20;99.90
61916;DHT22;47868;51.326;6.550;2022-12-07T14:06:51;8.20;99.90
61916;DHT22;47868;51.326;6.550;2022-12-07T14:09:23;8.30;99.90
61916;DHT22;47868;51.326;6.550;2022-12-07T14:11:50;8.30;99.90
61916;DHT22;47868;51.326;6.550;2022-12-07T14:14:21;8.60;99.90
61916;DHT22;47868;51.326;6.550;2022-12-07T14:19:47;8.40;99.90
61916;DHT22;47868;51.326;6.550;2022-12-07T14:22:34;8.40;99.90
61916;DHT22;47868;51.326;6.550;2022-12-07T14:27:32;8.20;99.90
61916;DHT22;47868;51.326;6.550;2022-12-07T14:30:00;8.20;99.90
61916;DHT22;47868;51.326;6.550;2022-12-07T14:32:28;7.80;99.90
61916;DHT22;47868;51.326;6.550;2022-12-07T14:35:09;8.10;99.90
61916;DHT22;47868;51.326;6.550;2022-12-07T14:37:36;7.80;99.90
61916;DHT22;47868;51.326;6.550;2022-12-07T14:40:03;7.90;99.90
61916;DHT22;47868;51.326;6.550;2022-12-07T14:44:57;7.50;99.90
61916;DHT22;47868;51.326;6.550;2022-12-07T14:47:24;7.70;99.90
61916;DHT22;47868;51.326;6.550;2022-12-07T14:49:53;7.80;99.90
61916;DHT22;47868;51.326;6.550;2022-12-07T14:52:22;7.70;99.90
61916;DHT22;47868;51.326;6.550;2022-12-07T14:54:48;7.70;99.90
61916;DHT22;47868;51.326;6.550;2022-12-07T14:57:13;7.70;99.90
61916;DHT22;47868;51.326;6.550;2022-12-07T14:59:39;7.60;99.90
61916;DHT22;47868;51.326;6.550;2022-12-07T15:02:06;7.60;99.90
61916;DHT22;47868;51.326;6.550;2022-12-07T15:04:32;7.50;99.90
61916;DHT22;47868;51.326;6.550;2022-12-07T15:07:00;7.60;99.90
61916;DHT22;47868;51.326;6.550;2022-12-07T15:09:26;7.70;99.90
61916;DHT22;47868;51.326;6.550;2022-12-07T15:11:52;7.50;99.90
61916;DHT22;47868;51.326;6.550;2022-12-07T15:16:46;6.60;99.90
61916;DHT22;47868;51.326;6.550;2022-12-07T15:19:14;7.20;99.90
61916;DHT22;47868;51.326;6.550;2022-12-07T15:21:43;7.20;99.90
61916;DHT22;47868;51.326;6.550;2022-12-07T15:24:12;7.20;99.90
61916;DHT22;47868;51.326;6.550;2022-12-07T15:29:06;7.10;99.90
61916;DHT22;47868;51.326;6.550;2022-12-07T15:31:34;6.90;99.90
61916;DHT22;47868;51.326;6.550;2022-12-07T15:36:30;6.90;99.90
61916;DHT22;47868;51.326;6.550;2022-12-07T15:38:56;7.20;99.90
61916;DHT22;47868;51.326;6.550;2022-12-07T15:46:37;6.90;99.90
61916;DHT22;47868;51.326;6.550;2022-12-07T15:49:04;6.90;99.90
61916;DHT22;47868;51.326;6.550;2022-12-07T15:51:30;6.90;99.90
61916;DHT22;47868;51.326;6.550;2022-12-07T15:53:57;6.80;99.90
61916;DHT22;47868;51.326;6.550;2022-12-07T15:56:23;6.90;99.90
61916;DHT22;47868;51.326;6.550;2022-12-07T15:58:49;6.80;99.90
61916;DHT22;47868;51.326;6.550;2022-12-07T16:01:16;6.80;99.90
61916;DHT22;47868;51.326;6.550;2022-12-07T16:03:43;6.80;99.90
61916;DHT22;47868;51.326;6.550;2022-12-07T16:06:09;7.00;99.90
61916;DHT22;47868;51.326;6.550;2022-12-07T16:08:35;6.80;99.90
61916;DHT22;47868;51.326;6.550;2022-12-07T16:11:07;6.80;99.90
61916;DHT22;47868;51.326;6.550;2022-12-07T16:13:34;6.80;99.90
61916;DHT22;47868;51.326;6.550;2022-12-07T16:16:09;6.90;99.90
61916;DHT22;47868;51.326;6.550;2022-12-07T16:18:35;6.90;99.90
61916;DHT22;47868;51.326;6.550;2022-12-07T16:23:28;6.90;99.90
61916;DHT22;47868;51.326;6.550;2022-12-07T16:25:53;7.00;99.90
61916;DHT22;47868;51.326;6.550;2022-12-07T16:28:19;6.90;99.90
61916;DHT22;47868;51.326;6.550;2022-12-07T16:30:45;6.70;99.90
61916;DHT22;47868;51.326;6.550;2022-12-07T16:33:11;6.90;99.90
61916;DHT22;47868;51.326;6.550;2022-12-07T16:38:07;6.80;99.90
61916;DHT22;47868;51.326;6.550;2022-12-07T16:40:33;6.70;99.90
61916;DHT22;47868;51.326;6.550;2022-12-07T16:42:58;6.90;99.90
61916;DHT22;47868;51.326;6.550;2022-12-07T16:45:24;6.80;99.90
61916;DHT22;47868;51.326;6.550;2022-12-07T16:47:50;6.80;99.90
61916;DHT22;47868;51.326;6.550;2022-12-07T16:50:15;6.70;99.90
61916;DHT22;47868;51.326;6.550;2022-12-07T16:52:41;6.80;99.90
61916;DHT22;47868;51.326;6.550;2022-12-07T16:57:34;6.70;99.90
61916;DHT22;47868;51.326;6.550;2022-12-07T16:59:59;6.10;99.90
61916;DHT22;47868;51.326;6.550;2022-12-07T17:02:25;6.70;99.90
61916;DHT22;47868;51.326;6.550;2022-12-07T17:04:51;6.70;99.90
61916;DHT22;47868;51.326;6.550;2022-12-07T17:07:16;6.70;99.90
61916;DHT22;47868;51.326;6.550;2022-12-07T17:09:42;6.70;99.90
61916;DHT22;47868;51.326;6.550;2022-12-07T17:12:08;6.70;99.90
61916;DHT22;47868;51.326;6.550;2022-12-07T17:14:33;6.60;99.90
61916;DHT22;47868;51.326;6.550;2022-12-07T17:17:18;6.60;99.90
61916;DHT22;47868;51.326;6.550;2022-12-07T17:22:10;6.50;99.90
61916;DHT22;47868;51.326;6.550;2022-12-07T17:24:38;6.50;99.90
61916;DHT22;47868;51.326;6.550;2022-12-07T17:27:03;6.50;99.90
61916;DHT22;47868;51.326;6.550;2022-12-07T17:31:56;6.60;99.90
61916;DHT22;47868;51.326;6.550;2022-12-07T17:34:22;6.50;99.90
61916;DHT22;47868;51.326;6.550;2022-12-07T17:36:48;6.70;99.90
61916;DHT22;47868;51.326;6.550;2022-12-07T17:39:16;6.60;99.90
61916;DHT22;47868;51.326;6.550;2022-12-07T17:41:41;6.50;99.90
61916;DHT22;47868;51.326;6.550;2022-12-07T17:44:27;6.50;99.90
61916;DHT22;47868;51.326;6.550;2022-12-07T17:46:53;5.90;99.90
61916;DHT22;47868;51.326;6.550;2022-12-07T17:49:27;6.50;99.90
61916;DHT22;47868;51.326;6.550;2022-12-07T17:54:38;6.50;99.90
61916;DHT22;47868;51.326;6.550;2022-12-07T17:57:03;6.50;99.90
61916;DHT22;47868;51.326;6.550;2022-12-07T17:59:29;6.30;99.90
61916;DHT22;47868;51.326;6.550;2022-12-07T18:01:55;6.70;99.90
61916;DHT22;47868;51.326;6.550;2022-12-07T18:04:21;6.40;99.90
61916;DHT22;47868;51.326;6.550;2022-12-07T18:06:46;6.30;99.90
61916;DHT22;47868;51.326;6.550;2022-12-07T18:09:12;6.30;99.90
61916;DHT22;47868;51.326;6.550;2022-12-07T18:11:38;6.40;99.90
61916;DHT22;47868;51.326;6.550;2022-12-07T18:14:05;6.30;99.90
61916;DHT22;47868;51.326;6.550;2022-12-07T18:16:32;6.70;99.90
61916;DHT22;47868;51.326;6.550;2022-12-07T18:19:00;6.20;99.90
61916;DHT22;47868;51.326;6.550;2022-12-07T18:21:28;5.80;99.90
61916;DHT22;47868;51.326;6.550;2022-12-07T18:23:55;5.70;99.90
61916;DHT22;47868;51.326;6.550;2022-12-07T18:26:24;6.20;99.90
61916;DHT22;47868;51.326;6.550;2022-12-07T18:28:50;6.10;99.90
61916;DHT22;47868;51.326;6.550;2022-12-07T18:31:17;6.60;99.90
61916;DHT22;47868;51.326;6.550;2022-12-07T18:33:43;6.10;99.90
61916;DHT22;47868;51.326;6.550;2022-12-07T18:36:10;6.10;99.90
61916;DHT22;47868;51.326;6.550;2022-12-07T18:38:36;6.20;99.90
61916;DHT22;47868;51.326;6.550;2022-12-07T18:41:02;6.00;99.90
61916;DHT22;47868;51.326;6.550;2022-12-07T18:43:28;6.10;99.90
61916;DHT22;47868;51.326;6.550;2022-12-07T18:45:54;6.10;99.90
61916;DHT22;47868;51.326;6.550;2022-12-07T18:48:21;6.00;99.90
61916;DHT22;47868;51.326;6.550;2022-12-07T18:50:58;6.10;99.90
61916;DHT22;47868;51.326;6.550;2022-12-07T18:53:23;6.10;99.90
61916;DHT22;47868;51.326;6.550;2022-12-07T18:55:49;6.00;99.90
61916;DHT22;47868;51.326;6.550;2022-12-07T18:58:15;6.00;99.90
61916;DHT22;47868;51.326;6.550;2022-12-07T19:00:40;6.00;99.90
61916;DHT22;47868;51.326;6.550;2022-12-07T19:05:32;5.80;99.90
61916;DHT22;47868;51.326;6.550;2022-12-07T19:07:58;5.90;99.90
61916;DHT22;47868;51.326;6.550;2022-12-07T19:10:24;5.90;99.90
61916;DHT22;47868;51.326;6.550;2022-12-07T19:12:49;6.00;99.90
61916;DHT22;47868;51.326;6.550;2022-12-07T19:15:15;6.00;99.90
61916;DHT22;47868;51.326;6.550;2022-12-07T19:17:41;6.00;99.90
61916;DHT22;47868;51.326;6.550;2022-12-07T19:20:08;6.00;99.90
61916;DHT22;47868;51.326;6.550;2022-12-07T19:22:35;6.00;99.90
61916;DHT22;47868;51.326;6.550;2022-12-07T19:25:00;5.90;99.90
61916;DHT22;47868;51.326;6.550;2022-12-07T19:27:28;6.00;99.90
61916;DHT22;47868;51.326;6.550;2022-12-07T19:29:56;6.00;99.90
61916;DHT22;47868;51.326;6.550;2022-12-07T19:32:24;5.80;99.90
61916;DHT22;47868;51.326;6.550;2022-12-07T19:34:50;5.90;99.90
61916;DHT22;47868;51.326;6.550;2022-12-07T19:39:43;5.80;99.90
61916;DHT22;47868;51.326;6.550;2022-12-07T19:42:11;5.80;99.90
61916;DHT22;47868;51.326;6.550;2022-12-07T19:44:37;5.90;99.90
61916;DHT22;47868;51.326;6.550;2022-12-07T19:47:03;5.90;99.90
61916;DHT22;47868;51.326;6.550;2022-12-07T19:49:31;5.90;99.90
61916;DHT22;47868;51.326;6.550;2022-12-07T19:51:59;5.90;99.90
61916;DHT22;47868;51.326;6.550;2022-12-07T20:01:48;5.90;99.90
61916;DHT22;47868;51.326;6.550;2022-12-07T20:04:16;5.90;99.90
61916;DHT22;47868;51.326;6.550;2022-12-07T20:06:42;5.90;99.90
61916;DHT22;47868;51.326;6.550;2022-12-07T20:09:08;5.90;99.90
61916;DHT22;47868;51.326;6.550;2022-12-07T20:11:35;5.90;99.90
61916;DHT22;47868;51.326;6.550;2022-12-07T20:16:48;6.00;99.90
61916;DHT22;47868;51.326;6.550;2022-12-07T20:21:42;5.70;99.90
61916;DHT22;47868;51.326;6.550;2022-12-07T20:26:38;5.30;99.90
61916;DHT22;47868;51.326;6.550;2022-12-07T20:31:36;5.80;99.90
61916;DHT22;47868;51.326;6.550;2022-12-07T20:34:02;5.90;99.90
61916;DHT22;47868;51.326;6.550;2022-12-07T20:38:58;5.80;99.90
61916;DHT22;47868;51.326;6.550;2022-12-07T20:56:30;5.50;99.90
61916;DHT22;47868;51.326;6.550;2022-12-07T20:58:58;5.60;99.90
61916;DHT22;47868;51.326;6.550;2022-12-07T21:01:23;5.40;99.90
61916;DHT22;47868;51.326;6.550;2022-12-07T21:06:19;5.70;99.90
61916;DHT22;47868;51.326;6.550;2022-12-07T21:08:47;5.80;99.90
61916;DHT22;47868;51.326;6.550;2022-12-07T21:11:14;5.80;99.90
61916;DHT22;47868;51.326;6.550;2022-12-07T21:21:10;5.60;99.90
61916;DHT22;47868;51.326;6.550;2022-12-07T21:23:36;5.60;99.90
61916;DHT22;47868;51.326;6.550;2022-12-07T21:26:13;5.70;99.90
61916;DHT22;47868;51.326;6.550;2022-12-07T21:33:33;6.00;99.90
61916;DHT22;47868;51.326;6.550;2022-12-07T21:38:29;5.60;99.90
61916;DHT22;47868;51.326;6.550;2022-12-07T21:40:55;5.70;99.90
61916;DHT22;47868;51.326;6.550;2022-12-07T22:20:18;5.60;99.90
61916;DHT22;47868;51.326;6.550;2022-12-07T22:22:44;5.70;99.90
61916;DHT22;47868;51.326;6.550;2022-12-07T22:27:40;5.60;99.90
61916;DHT22;47868;51.326;6.550;2022-12-07T22:30:08;5.70;99.90
61916;DHT22;47868;51.326;6.550;2022-12-07T22:32:34;5.70;99.90
61916;DHT22;47868;51.326;6.550;2022-12-07T22:34:59;5.60;99.90
61916;DHT22;47868;51.326;6.550;2022-12-07T22:49:40;5.20;99.90
61916;DHT22;47868;51.326;6.550;2022-12-07T22:52:06;5.70;99.90
61916;DHT22;47868;51.326;6.550;2022-12-07T23:16:57;5.30;99.90
61916;DHT22;47868;51.326;6.550;2022-12-07T23:31:38;5.30;99.90
61916;DHT22;47868;51.326;6.550;2022-12-07T23:34:05;5.40;99.90
61916;DHT22;47868;51.326;6.550;2022-12-07T23:36:33;5.30;99.90
61916;DHT22;47868;51.326;6.550;2022-12-07T23:38:58;5.40;99.90
61916;DHT22;47868;51.326;6.550;2022-12-07T23:41:29;5.30;99.90
61916;DHT22;47868;51.326;6.550;2022-12-07T23:46:24;5.30;99.90
61916;DHT22;47868;51.326;6.550;2022-12-07T23:51:21;5.30;99.90
